Time;durP1;ratioP1;P1;durP2;ratioP2;P2;SDS_P1;SDS_P2;PMS_P1;PMS_P2;Temp;Humidity;BMP_temperature;BMP_pressure;BME280_temperature;BME280_humidity;BME280_pressure;Samples;Min_cycle;Max_cycle;Signal;HPM_P1;HPM_P2
2022/01/21 00:00:48;;;;;;;15.25;2.53;;;;;;;;;;6220360;23;20429;-63
2022/01/21 00:03:14;;;;;;;15.30;1.95;;;;;;;;;;6246631;23;20509;-63
2022/01/21 00:05:40;;;;;;;15.63;3.00;;;;;;;;;;6219955;23;20047;-63
2022/01/21 00:08:06;;;;;;;15.38;3.55;;;;;;;;;;6247324;23;20019;-63
2022/01/21 00:10:32;;;;;;;21.52;2.63;;;;;;;;;;6246629;23;20012;-63
2022/01/21 00:12:58;;;;;;;24.38;2.85;;;;;;;;;;6246181;23;20012;-64
2022/01/21 00:15:24;;;;;;;13.93;2.05;;;;;;;;;;6246239;23;20437;-63
2022/01/21 00:17:50;;;;;;;9.18;2.00;;;;;;;;;;6247998;23;20065;-63
2022/01/21 00:31:15;;;;;;;20.85;2.53;;;;;;;;;;6246814;23;20086;-63
2022/01/21 00:33:41;;;;;;;12.98;1.77;;;;;;;;;;6246405;23;20459;-63
2022/01/21 00:36:08;;;;;;;18.98;1.88;;;;;;;;;;6219679;23;20043;-64
2022/01/21 00:38:34;;;;;;;14.77;2.78;;;;;;;;;;6246460;23;20484;-63
2022/01/21 00:41:04;;;;;;;16.10;1.70;;;;;;;;;;6245784;23;20325;-63
2022/01/21 00:43:43;;;;;;;12.45;2.33;;;;;;;;;;6246432;23;20019;-64
2022/01/21 00:46:09;;;;;;;14.52;1.60;;;;;;;;;;6246968;23;20091;-63
2022/01/21 00:48:35;;;;;;;10.80;2.33;;;;;;;;;;6219460;23;20019;-64
2022/01/21 00:51:01;;;;;;;14.90;2.55;;;;;;;;;;6246500;23;20016;-63
2022/01/21 00:53:27;;;;;;;20.60;2.45;;;;;;;;;;6219257;23;20062;-63
2022/01/21 00:55:53;;;;;;;13.32;2.03;;;;;;;;;;6246481;23;20004;-63
2022/01/21 00:58:19;;;;;;;14.93;1.75;;;;;;;;;;6246554;23;20455;-64
2022/01/21 01:00:45;;;;;;;16.15;3.17;;;;;;;;;;6247576;23;20364;-64
2022/01/21 01:03:13;;;;;;;18.33;2.25;;;;;;;;;;6246858;23;20016;-64
2022/01/21 01:05:39;;;;;;;18.38;2.42;;;;;;;;;;6246480;23;20012;-64
2022/01/21 01:08:05;;;;;;;14.02;1.88;;;;;;;;;;6219116;23;20441;-64
2022/01/21 01:11:00;;;;;;;17.25;2.15;;;;;;;;;;6246789;23;20057;-61
2022/01/21 01:21:44;;;;;;;13.68;2.20;;;;;;;;;;6247786;23;20355;-64
2022/01/21 01:29:23;;;;;;;14.45;2.05;;;;;;;;;;6246175;23;20020;-64
2022/01/21 01:31:49;;;;;;;7.28;1.92;;;;;;;;;;6245869;23;20387;-63
2022/01/21 01:34:15;;;;;;;11.40;2.25;;;;;;;;;;6246556;23;20095;-64
2022/01/21 01:36:46;;;;;;;14.75;3.75;;;;;;;;;;6194466;23;20020;-63
2022/01/21 01:39:33;;;;;;;8.80;2.78;;;;;;;;;;6245820;23;20329;-64
2022/01/21 01:50:23;;;;;;;13.32;2.28;;;;;;;;;;6151759;23;20029;-64
2022/01/21 01:52:51;;;;;;;7.63;1.45;;;;;;;;;;6215497;23;20023;-63
2022/01/21 01:55:17;;;;;;;16.00;1.80;;;;;;;;;;6215123;23;20400;-64
2022/01/21 01:57:43;;;;;;;12.93;2.72;;;;;;;;;;6215313;23;20051;-64
2022/01/21 02:00:09;;;;;;;11.57;1.70;;;;;;;;;;6216934;23;20019;-64
2022/01/21 02:02:35;;;;;;;8.90;2.05;;;;;;;;;;6188910;23;20039;-64
2022/01/21 02:05:01;;;;;;;11.50;2.95;;;;;;;;;;6189116;23;20194;-63
2022/01/21 02:07:27;;;;;;;11.93;1.20;;;;;;;;;;6215795;23;20012;-64
2022/01/21 02:09:53;;;;;;;12.32;1.20;;;;;;;;;;6215792;23;20027;-64
2022/01/21 02:12:19;;;;;;;16.77;1.42;;;;;;;;;;6215840;23;20012;-64
2022/01/21 02:14:50;;;;;;;11.02;1.45;;;;;;;;;;6216135;23;20074;-64
2022/01/21 02:22:36;;;;;;;17.63;1.70;;;;;;;;;;6215995;23;20062;-64
2022/01/21 02:25:15;;;;;;;9.90;1.30;;;;;;;;;;6216216;23;20024;-63
2022/01/21 02:27:42;;;;;;;17.63;1.88;;;;;;;;;;6216044;23;20294;-64
2022/01/21 02:30:08;;;;;;;11.65;1.42;;;;;;;;;;6215316;23;20437;-65
2022/01/21 02:32:34;;;;;;;9.75;2.30;;;;;;;;;;6215640;23;20013;-64
2022/01/21 02:35:00;;;;;;;12.85;1.98;;;;;;;;;;6216101;23;20055;-64
2022/01/21 02:37:26;;;;;;;16.65;2.17;;;;;;;;;;6216871;23;20012;-63
2022/01/21 02:39:52;;;;;;;15.75;2.92;;;;;;;;;;6217976;23;20063;-64
2022/01/21 02:42:18;;;;;;;16.27;3.40;;;;;;;;;;6217508;23;20089;-64
2022/01/21 02:44:44;;;;;;;13.32;2.55;;;;;;;;;;6217870;23;20012;-64
2022/01/21 02:47:10;;;;;;;12.05;2.88;;;;;;;;;;6217857;23;20139;-64
2022/01/21 02:49:37;;;;;;;14.63;2.72;;;;;;;;;;6216557;23;20460;-63
2022/01/21 02:52:04;;;;;;;10.05;3.28;;;;;;;;;;6217492;23;20100;-64
2022/01/21 02:54:33;;;;;;;10.25;2.22;;;;;;;;;;6191568;23;20062;-64
2022/01/21 02:57:00;;;;;;;13.70;2.47;;;;;;;;;;6217380;23;20016;-64
2022/01/21 02:59:27;;;;;;;16.17;2.90;;;;;;;;;;6190646;23;20100;-64
2022/01/21 03:01:53;;;;;;;11.88;1.30;;;;;;;;;;6190215;23;20135;-63
2022/01/21 03:04:29;;;;;;;17.23;1.92;;;;;;;;;;6217231;23;20097;-64
2022/01/21 03:06:55;;;;;;;15.10;2.05;;;;;;;;;;6217707;23;20088;-64
2022/01/21 03:09:21;;;;;;;14.73;3.65;;;;;;;;;;6190983;23;20042;-64
2022/01/21 03:11:47;;;;;;;9.55;2.53;;;;;;;;;;6217026;23;20009;-64
2022/01/21 03:14:13;;;;;;;11.95;2.08;;;;;;;;;;6217112;23;20325;-64
2022/01/21 03:16:39;;;;;;;12.15;1.70;;;;;;;;;;6217210;23;20013;-64
2022/01/21 03:19:05;;;;;;;13.35;2.60;;;;;;;;;;6217838;23;20367;-65
2022/01/21 03:21:31;;;;;;;16.17;2.67;;;;;;;;;;6166370;23;20016;-64
2022/01/21 03:23:57;;;;;;;15.73;4.60;;;;;;;;;;6216946;23;20434;-65
2022/01/21 03:26:24;;;;;;;15.80;3.45;;;;;;;;;;6190829;23;20066;-64
2022/01/21 03:28:53;;;;;;;15.98;3.63;;;;;;;;;;6216960;23;20042;-64
2022/01/21 03:31:19;;;;;;;15.55;2.45;;;;;;;;;;6216480;23;20055;-65
2022/01/21 03:33:45;;;;;;;11.55;2.22;;;;;;;;;;6190626;23;20492;-64
2022/01/21 03:36:11;;;;;;;11.40;1.60;;;;;;;;;;6216594;23;20016;-64
2022/01/21 03:38:37;;;;;;;17.27;2.00;;;;;;;;;;6191509;23;20422;-64
2022/01/21 03:41:04;;;;;;;11.75;1.98;;;;;;;;;;6216316;23;20087;-64
2022/01/21 03:43:30;;;;;;;9.63;1.65;;;;;;;;;;6217199;23;20020;-64
2022/01/21 03:45:56;;;;;;;11.88;2.08;;;;;;;;;;6215750;23;20015;-64
2022/01/21 03:48:23;;;;;;;10.68;1.67;;;;;;;;;;6190043;23;20017;-64
2022/01/21 03:50:49;;;;;;;11.77;1.33;;;;;;;;;;6215795;23;20020;-64
2022/01/21 03:53:15;;;;;;;7.30;1.10;;;;;;;;;;6216728;23;20025;-65
2022/01/21 03:55:41;;;;;;;7.50;1.25;;;;;;;;;;6190452;23;20021;-65
2022/01/21 03:58:09;;;;;;;8.77;0.75;;;;;;;;;;6216660;23;20017;-65
2022/01/21 04:00:36;;;;;;;14.20;1.95;;;;;;;;;;6189993;23;20370;-66
2022/01/21 04:03:05;;;;;;;5.57;1.00;;;;;;;;;;6190113;23;20044;-64
2022/01/21 04:05:32;;;;;;;8.30;1.00;;;;;;;;;;6189602;23;20496;-64
2022/01/21 04:07:58;;;;;;;10.80;1.58;;;;;;;;;;6216948;23;20065;-64
2022/01/21 04:10:24;;;;;;;9.55;1.27;;;;;;;;;;6190630;23;20017;-64
2022/01/21 04:12:51;;;;;;;11.80;1.25;;;;;;;;;;6190613;23;20023;-64
2022/01/21 04:15:17;;;;;;;4.80;1.00;;;;;;;;;;6189140;23;20067;-64
2022/01/21 04:17:43;;;;;;;10.30;1.08;;;;;;;;;;6216527;23;20340;-64
2022/01/21 04:20:11;;;;;;;6.75;1.05;;;;;;;;;;6216780;23;20016;-64
2022/01/21 04:22:37;;;;;;;11.40;1.40;;;;;;;;;;6216044;23;20013;-64
2022/01/21 04:25:05;;;;;;;7.03;0.88;;;;;;;;;;6216050;23;20044;-64
2022/01/21 04:27:31;;;;;;;7.10;1.63;;;;;;;;;;6216370;23;20102;-64
2022/01/21 04:29:57;;;;;;;13.40;2.47;;;;;;;;;;6190076;23;20087;-64
2022/01/21 04:32:23;;;;;;;8.50;2.38;;;;;;;;;;6216401;23;20322;-65
2022/01/21 04:34:49;;;;;;;17.27;2.70;;;;;;;;;;6189347;23;20020;-65
2022/01/21 04:37:16;;;;;;;15.73;3.60;;;;;;;;;;6216064;23;20048;-64
2022/01/21 04:39:50;;;;;;;9.95;1.83;;;;;;;;;;6216765;23;20096;-64
2022/01/21 04:47:35;;;;;;;8.27;0.98;;;;;;;;;;6189460;23;20421;-65
2022/01/21 04:50:01;;;;;;;12.23;1.45;;;;;;;;;;6190079;23;20020;-64
2022/01/21 04:52:27;;;;;;;14.35;1.85;;;;;;;;;;6189712;23;20092;-65
2022/01/21 04:54:53;;;;;;;10.55;1.50;;;;;;;;;;6216615;23;20091;-64
2022/01/21 04:57:19;;;;;;;12.05;1.30;;;;;;;;;;6216654;23;20013;-64
2022/01/21 04:59:46;;;;;;;11.18;1.60;;;;;;;;;;6216019;23;20008;-64
2022/01/21 05:02:12;;;;;;;11.50;2.17;;;;;;;;;;6190238;23;20024;-64
2022/01/21 05:04:38;;;;;;;13.88;2.22;;;;;;;;;;6215781;23;20012;-65
2022/01/21 05:07:08;;;;;;;11.27;2.30;;;;;;;;;;6216182;23;20013;-64
2022/01/21 05:09:35;;;;;;;17.42;1.63;;;;;;;;;;6216608;23;20020;-64
2022/01/21 05:12:03;;;;;;;8.40;1.98;;;;;;;;;;6188958;23;20417;-64
2022/01/21 05:15:17;;;;;;;18.00;1.40;;;;;;;;;;6215876;23;20090;-64
2022/01/21 05:17:15;;;;;;;8.88;1.40;;;;;;;;;;6194524;23;20442;-65
2022/01/21 05:19:42;;;;;;;13.57;1.85;;;;;;;;;;6189622;23;20020;-64
2022/01/21 05:22:08;;;;;;;8.98;1.30;;;;;;;;;;6216443;23;20055;-64
2022/01/21 05:24:34;;;;;;;8.88;1.58;;;;;;;;;;6189531;23;20418;-64
2022/01/21 05:27:01;;;;;;;13.75;1.55;;;;;;;;;;6189950;23;20096;-65
2022/01/21 05:29:30;;;;;;;9.98;1.42;;;;;;;;;;6217082;23;20012;-64
2022/01/21 05:31:56;;;;;;;24.17;3.63;;;;;;;;;;6189779;23;20009;-64
2022/01/21 05:34:23;;;;;;;14.38;1.98;;;;;;;;;;6189051;23;20019;-64
2022/01/21 05:36:49;;;;;;;10.38;2.70;;;;;;;;;;6215915;23;20059;-64
2022/01/21 05:39:16;;;;;;;22.00;3.83;;;;;;;;;;6216257;23;20012;-64
2022/01/21 05:41:48;;;;;;;9.02;2.55;;;;;;;;;;6216341;23;20016;-64
2022/01/21 05:46:22;;;;;;;16.10;3.67;;;;;;;;;;6190141;23;20322;-64
2022/01/21 05:47:02;;;;;;;17.77;3.33;;;;;;;;;;6215702;23;20333;-65
2022/01/21 05:49:29;;;;;;;12.75;2.53;;;;;;;;;;6215573;23;20024;-65
2022/01/21 05:52:04;;;;;;;12.63;2.08;;;;;;;;;;6190416;23;20016;-64
2022/01/21 05:54:31;;;;;;;10.40;2.20;;;;;;;;;;6190165;23;20322;-64
2022/01/21 05:56:57;;;;;;;11.00;1.80;;;;;;;;;;6189741;23;20048;-64
2022/01/21 05:59:23;;;;;;;10.45;1.80;;;;;;;;;;6216918;23;20016;-64
2022/01/21 06:01:50;;;;;;;8.40;1.33;;;;;;;;;;6190637;23;20016;-64
2022/01/21 06:04:16;;;;;;;11.77;1.80;;;;;;;;;;6188764;23;20048;-65
2022/01/21 06:06:42;;;;;;;13.25;1.30;;;;;;;;;;6189989;23;20016;-64
2022/01/21 06:09:08;;;;;;;6.20;0.75;;;;;;;;;;6190676;23;20013;-64
2022/01/21 06:11:34;;;;;;;15.07;1.48;;;;;;;;;;6217355;23;20294;-65
2022/01/21 06:14:02;;;;;;;9.20;1.27;;;;;;;;;;6191671;23;20016;-64
2022/01/21 06:16:28;;;;;;;12.82;1.65;;;;;;;;;;6190867;23;20096;-65
2022/01/21 06:18:54;;;;;;;14.30;1.52;;;;;;;;;;6190909;23;20020;-65
2022/01/21 06:21:20;;;;;;;15.55;1.63;;;;;;;;;;6191511;23;20017;-64
2022/01/21 06:23:46;;;;;;;10.95;1.80;;;;;;;;;;6191504;23;20023;-64
2022/01/21 06:26:12;;;;;;;10.65;1.50;;;;;;;;;;6191133;23;20021;-64
2022/01/21 06:28:38;;;;;;;9.30;1.02;;;;;;;;;;6217260;23;20012;-64
2022/01/21 06:31:04;;;;;;;7.05;1.30;;;;;;;;;;6165359;23;20009;-64
2022/01/21 06:33:30;;;;;;;12.57;1.77;;;;;;;;;;6191324;23;20107;-65
2022/01/21 06:35:57;;;;;;;17.90;2.22;;;;;;;;;;6190638;23;20429;-64
2022/01/21 06:38:23;;;;;;;9.93;1.63;;;;;;;;;;6190752;23;20308;-65
2022/01/21 06:40:50;;;;;;;8.98;1.10;;;;;;;;;;6190980;23;20009;-65
2022/01/21 06:43:16;;;;;;;12.27;1.52;;;;;;;;;;6216908;23;20104;-64
2022/01/21 06:45:43;;;;;;;13.82;1.50;;;;;;;;;;6190337;23;20017;-64
2022/01/21 06:48:09;;;;;;;13.48;1.60;;;;;;;;;;6190091;23;20016;-64
2022/01/21 06:50:37;;;;;;;10.95;1.80;;;;;;;;;;6216884;23;20016;-64
2022/01/21 06:53:03;;;;;;;24.70;2.42;;;;;;;;;;6217493;23;20019;-64
2022/01/21 06:55:29;;;;;;;11.90;1.85;;;;;;;;;;6217544;23;20059;-64
2022/01/21 06:57:56;;;;;;;7.18;1.27;;;;;;;;;;6217404;23;20025;-65
2022/01/21 07:00:22;;;;;;;11.63;2.22;;;;;;;;;;6190451;23;20016;-64
2022/01/21 07:02:49;;;;;;;14.88;2.58;;;;;;;;;;6165704;23;20019;-65
2022/01/21 07:05:15;;;;;;;10.70;1.60;;;;;;;;;;6190311;23;20020;-64
2022/01/21 07:07:41;;;;;;;12.52;1.75;;;;;;;;;;6216316;23;20095;-65
2022/01/21 07:10:10;;;;;;;11.25;2.08;;;;;;;;;;6216794;23;20017;-64
2022/01/21 07:12:36;;;;;;;19.15;2.00;;;;;;;;;;6190103;23;20012;-64
2022/01/21 07:15:03;;;;;;;11.70;1.23;;;;;;;;;;6216676;23;20012;-64
2022/01/21 07:17:29;;;;;;;10.82;1.38;;;;;;;;;;6190084;23;20457;-64
2022/01/21 07:19:55;;;;;;;16.25;1.92;;;;;;;;;;6216540;23;20017;-64
2022/01/21 07:22:21;;;;;;;12.15;2.03;;;;;;;;;;6216567;23;20358;-64
2022/01/21 07:24:48;;;;;;;11.73;1.80;;;;;;;;;;6216216;23;20017;-65
2022/01/21 07:27:14;;;;;;;11.57;2.97;;;;;;;;;;6189734;23;20378;-64
2022/01/21 07:29:40;;;;;;;11.35;2.92;;;;;;;;;;6216851;23;20013;-64
2022/01/21 07:32:06;;;;;;;15.73;3.70;;;;;;;;;;6217890;23;20088;-62
2022/01/21 07:34:32;;;;;;;14.07;3.50;;;;;;;;;;6217949;23;20048;-62
2022/01/21 07:36:58;;;;;;;13.52;4.22;;;;;;;;;;6190421;23;20020;-64
2022/01/21 07:39:24;;;;;;;18.70;5.38;;;;;;;;;;6190349;23;20129;-64
2022/01/21 07:41:50;;;;;;;18.77;3.67;;;;;;;;;;6217978;23;20361;-64
2022/01/21 07:44:17;;;;;;;22.48;5.55;;;;;;;;;;6191599;23;20019;-64
2022/01/21 07:46:43;;;;;;;22.90;5.68;;;;;;;;;;6216869;23;20456;-64
2022/01/21 07:49:10;;;;;;;26.38;5.57;;;;;;;;;;6165456;23;20021;-65
2022/01/21 07:51:36;;;;;;;27.52;7.85;;;;;;;;;;6216590;23;20020;-64
2022/01/21 07:54:02;;;;;;;24.65;5.07;;;;;;;;;;6216418;23;20338;-65
2022/01/21 07:56:28;;;;;;;19.45;4.70;;;;;;;;;;6190248;23;20019;-65
2022/01/21 07:58:54;;;;;;;21.10;4.70;;;;;;;;;;6191506;23;20091;-64
2022/01/21 08:01:20;;;;;;;16.70;5.20;;;;;;;;;;6190899;23;20066;-64
2022/01/21 08:03:46;;;;;;;20.30;5.45;;;;;;;;;;6216342;23;20015;-64
2022/01/21 08:06:13;;;;;;;15.73;4.10;;;;;;;;;;6191124;23;20013;-64
2022/01/21 08:08:39;;;;;;;14.18;4.00;;;;;;;;;;6217085;23;20021;-64
2022/01/21 08:11:05;;;;;;;17.92;3.50;;;;;;;;;;6190292;23;20013;-64
2022/01/21 08:13:31;;;;;;;17.77;3.03;;;;;;;;;;6217581;23;20016;-64
2022/01/21 08:15:57;;;;;;;15.25;2.63;;;;;;;;;;6190059;23;20013;-64
2022/01/21 08:18:23;;;;;;;18.02;2.78;;;;;;;;;;6216639;23;20503;-64
2022/01/21 08:20:49;;;;;;;15.45;2.25;;;;;;;;;;6216914;23;20012;-64
2022/01/21 08:23:15;;;;;;;25.05;4.40;;;;;;;;;;6216618;23;20013;-64
2022/01/21 08:25:41;;;;;;;19.75;3.25;;;;;;;;;;6216380;23;20016;-64
2022/01/21 08:28:07;;;;;;;14.05;2.72;;;;;;;;;;6216846;23;20427;-64
2022/01/21 08:30:34;;;;;;;13.82;2.60;;;;;;;;;;6191134;23;20019;-64
2022/01/21 08:33:00;;;;;;;17.23;3.60;;;;;;;;;;6190851;23;20062;-64
2022/01/21 08:35:27;;;;;;;23.45;3.33;;;;;;;;;;6164849;23;20096;-63
2022/01/21 08:37:53;;;;;;;16.85;2.42;;;;;;;;;;6216403;23;20103;-63
2022/01/21 08:40:23;;;;;;;18.42;2.17;;;;;;;;;;6187999;22;20020;-61
2022/01/21 08:42:50;;;;;;;18.48;2.80;;;;;;;;;;6211934;22;20382;-61
2022/01/21 08:45:16;;;;;;;26.35;2.10;;;;;;;;;;6189642;23;20017;-61
2022/01/21 08:47:43;;;;;;;11.90;1.60;;;;;;;;;;6190102;23;20100;-61
2022/01/21 08:50:11;;;;;;;17.95;2.22;;;;;;;;;;6190134;23;20072;-61
2022/01/21 08:52:37;;;;;;;13.07;1.70;;;;;;;;;;6189733;23;20012;-60
2022/01/21 08:55:05;;;;;;;20.77;2.65;;;;;;;;;;6216191;23;20016;-61
2022/01/21 08:57:34;;;;;;;15.20;2.55;;;;;;;;;;6190750;23;20019;-61
2022/01/21 09:00:00;;;;;;;21.42;2.80;;;;;;;;;;6190038;23;20441;-61
2022/01/21 09:02:26;;;;;;;15.60;3.15;;;;;;;;;;6189094;23;20013;-62
2022/01/21 09:04:52;;;;;;;22.20;2.70;;;;;;;;;;6216207;23;20137;-61
2022/01/21 09:07:18;;;;;;;25.38;2.65;;;;;;;;;;6216615;23;20491;-61
2022/01/21 09:09:44;;;;;;;14.13;1.70;;;;;;;;;;6216448;23;20020;-62
2022/01/21 09:12:10;;;;;;;17.33;2.88;;;;;;;;;;6215740;23;20380;-61
2022/01/21 09:14:36;;;;;;;14.48;1.98;;;;;;;;;;6189380;23;20046;-61
2022/01/21 09:17:02;;;;;;;13.77;3.60;;;;;;;;;;6215679;23;20448;-61
2022/01/21 09:19:29;;;;;;;17.95;2.30;;;;;;;;;;6216233;23;20088;-61
2022/01/21 09:21:56;;;;;;;16.65;2.92;;;;;;;;;;6215607;23;20012;-62
2022/01/21 09:24:22;;;;;;;19.63;4.18;;;;;;;;;;6215582;23;20012;-63
2022/01/21 09:26:49;;;;;;;20.40;4.55;;;;;;;;;;6189639;23;20027;-62
2022/01/21 09:29:16;;;;;;;19.83;5.13;;;;;;;;;;6188760;23;20024;-62
2022/01/21 09:31:43;;;;;;;21.23;3.85;;;;;;;;;;6216307;23;20087;-61
2022/01/21 09:34:09;;;;;;;30.92;4.70;;;;;;;;;;6214900;23;20013;-62
2022/01/21 09:36:35;;;;;;;17.08;2.65;;;;;;;;;;6217344;23;20273;-62
2022/01/21 09:39:02;;;;;;;25.75;4.80;;;;;;;;;;6215775;23;20077;-61
2022/01/21 09:41:29;;;;;;;21.23;5.10;;;;;;;;;;6216303;23;20147;-62
2022/01/21 09:43:55;;;;;;;22.10;4.20;;;;;;;;;;6216034;23;20024;-62
2022/01/21 09:46:27;;;;;;;29.70;4.72;;;;;;;;;;6216511;23;20031;-62
2022/01/21 09:49:06;;;;;;;17.35;3.30;;;;;;;;;;6218000;23;20012;-62
2022/01/21 09:51:32;;;;;;;15.20;3.15;;;;;;;;;;6218110;23;20013;-62
2022/01/21 09:54:03;;;;;;;16.30;3.53;;;;;;;;;;6217131;23;20013;-61
2022/01/21 09:56:30;;;;;;;26.85;4.15;;;;;;;;;;6217707;23;20298;-55
2022/01/21 09:58:57;;;;;;;28.02;2.92;;;;;;;;;;6191629;23;20096;-61
2022/01/21 10:01:24;;;;;;;25.85;3.03;;;;;;;;;;6217414;23;20067;-62
2022/01/21 10:03:50;;;;;;;25.85;3.25;;;;;;;;;;6217879;23;20063;-61
2022/01/21 10:06:18;;;;;;;25.83;3.42;;;;;;;;;;6218215;23;20062;-61
2022/01/21 10:08:44;;;;;;;20.65;3.00;;;;;;;;;;6191872;23;20103;-61
2022/01/21 10:11:11;;;;;;;20.80;2.63;;;;;;;;;;6191532;23;20019;-62
2022/01/21 10:13:37;;;;;;;30.35;3.40;;;;;;;;;;6218146;23;20020;-61
2022/01/21 10:16:04;;;;;;;23.35;3.53;;;;;;;;;;6218779;23;20016;-61
2022/01/21 10:18:31;;;;;;;20.38;2.88;;;;;;;;;;6217916;23;20322;-62
2022/01/21 10:21:04;;;;;;;26.95;3.92;;;;;;;;;;6191097;23;20017;-60
2022/01/21 10:23:32;;;;;;;15.75;2.38;;;;;;;;;;6191434;23;20012;-60
2022/01/21 10:26:04;;;;;;;19.27;3.08;;;;;;;;;;6189689;23;20680;-61
2022/01/21 10:28:30;;;;;;;13.20;2.97;;;;;;;;;;6216816;23;20044;-61
2022/01/21 10:31:10;;;;;;;19.80;3.05;;;;;;;;;;6216863;23;20559;-61
2022/01/21 10:33:59;;;;;;;16.60;3.42;;;;;;;;;;6190234;23;20066;-62
2022/01/21 10:36:35;;;;;;;16.30;2.08;;;;;;;;;;6217195;23;20023;-62
2022/01/21 10:39:29;;;;;;;12.52;1.40;;;;;;;;;;6217320;23;20013;-62
2022/01/21 10:41:52;;;;;;;16.08;3.33;;;;;;;;;;6215655;23;20012;-62
2022/01/21 10:44:19;;;;;;;13.27;1.77;;;;;;;;;;6190422;23;20043;-62
2022/01/21 10:47:01;;;;;;;18.20;2.28;;;;;;;;;;6217188;23;20062;-61
2022/01/21 10:49:27;;;;;;;15.40;2.10;;;;;;;;;;6217762;23;20021;-64
2022/01/21 10:51:53;;;;;;;12.38;1.60;;;;;;;;;;6189932;23;20016;-61
2022/01/21 10:54:20;;;;;;;31.73;2.97;;;;;;;;;;6190479;23;20012;-59
2022/01/21 10:57:02;;;;;;;13.10;2.03;;;;;;;;;;6190135;23;20035;-61
2022/01/21 10:59:44;;;;;;;16.63;3.10;;;;;;;;;;6190560;23;20008;-62
2022/01/21 11:02:11;;;;;;;10.05;2.17;;;;;;;;;;6217003;23;20012;-61
2022/01/21 11:04:41;;;;;;;17.40;2.42;;;;;;;;;;6217033;23;20012;-61
2022/01/21 11:07:08;;;;;;;21.05;2.58;;;;;;;;;;6191153;23;20087;-61
2022/01/21 11:09:37;;;;;;;13.27;1.80;;;;;;;;;;6217346;23;20048;-61
2022/01/21 11:12:09;;;;;;;14.45;1.63;;;;;;;;;;6217348;23;20019;-60
2022/01/21 11:14:36;;;;;;;10.88;2.40;;;;;;;;;;6216371;23;20023;-61
2022/01/21 11:17:06;;;;;;;17.15;2.00;;;;;;;;;;6189992;23;20452;-61
2022/01/21 11:19:35;;;;;;;16.38;2.15;;;;;;;;;;6218170;23;20009;-62
2022/01/21 11:22:04;;;;;;;16.90;1.90;;;;;;;;;;6190885;23;20016;-61
2022/01/21 11:24:30;;;;;;;17.73;2.85;;;;;;;;;;6217010;23;20429;-62
2022/01/21 11:27:06;;;;;;;13.73;2.35;;;;;;;;;;6217405;23;20013;-62
2022/01/21 11:29:32;;;;;;;11.10;1.60;;;;;;;;;;6191535;23;20051;-57
2022/01/21 11:31:58;;;;;;;11.75;1.60;;;;;;;;;;6216819;23;20318;-61
2022/01/21 11:34:24;;;;;;;17.10;2.50;;;;;;;;;;6216748;23;20039;-61
2022/01/21 11:36:51;;;;;;;12.52;2.03;;;;;;;;;;6216696;23;20028;-62
2022/01/21 11:39:21;;;;;;;12.40;1.30;;;;;;;;;;6190765;23;20326;-62
2022/01/21 11:41:49;;;;;;;12.57;1.80;;;;;;;;;;6190449;23;20021;-62
2022/01/21 11:44:19;;;;;;;12.45;2.15;;;;;;;;;;6216687;23;20445;-62
2022/01/21 11:46:59;;;;;;;10.98;1.42;;;;;;;;;;6216481;23;20091;-62
2022/01/21 11:49:25;;;;;;;13.13;2.97;;;;;;;;;;6217304;23;20091;-62
2022/01/21 11:52:07;;;;;;;11.35;1.20;;;;;;;;;;6165271;23;20015;-62
2022/01/21 11:54:35;;;;;;;14.18;1.95;;;;;;;;;;6190700;23;20096;-62
2022/01/21 11:57:04;;;;;;;13.15;1.42;;;;;;;;;;6216480;23;20013;-61
2022/01/21 11:59:58;;;;;;;14.13;1.30;;;;;;;;;;6189586;23;20012;-62
2022/01/21 12:02:28;;;;;;;10.77;1.77;;;;;;;;;;6215862;23;20433;-62
2022/01/21 12:05:02;;;;;;;15.05;2.05;;;;;;;;;;6189343;23;20142;-62
2022/01/21 12:07:28;;;;;;;10.80;1.40;;;;;;;;;;6217386;23;20013;-62
2022/01/21 12:09:58;;;;;;;15.43;1.52;;;;;;;;;;6190298;23;20468;-62
2022/01/21 12:12:26;;;;;;;11.20;1.42;;;;;;;;;;6216226;23;20040;-62
2022/01/21 12:14:59;;;;;;;11.45;1.50;;;;;;;;;;6216721;23;20018;-62
2022/01/21 12:17:42;;;;;;;13.75;1.63;;;;;;;;;;6217717;23;20012;-62
2022/01/21 12:20:08;;;;;;;12.48;1.40;;;;;;;;;;6217352;23;20082;-62
2022/01/21 12:22:34;;;;;;;15.15;1.60;;;;;;;;;;6215729;23;20059;-62
2022/01/21 12:25:04;;;;;;;14.15;2.15;;;;;;;;;;6216930;23;20043;-62
2022/01/21 12:27:30;;;;;;;10.53;2.23;;;;;;;;;;6189674;23;20044;-62
2022/01/21 12:30:23;;;;;;;12.23;1.90;;;;;;;;;;6216143;23;20242;-62
2022/01/21 12:32:52;;;;;;;15.43;2.20;;;;;;;;;;6217434;23;20095;-62
2022/01/21 12:35:19;;;;;;;14.70;3.47;;;;;;;;;;6215963;23;20019;-62
2022/01/21 13:04:46;;;;;;;16.07;2.83;;;;;;;;;;6154611;22;2205855;-64
2022/01/21 13:07:18;;;;;;;14.10;2.47;;;;;;;;;;6224053;23;20084;-63
2022/01/21 13:15:18;;;;;;;13.52;2.50;;;;;;;;;;6223586;23;20461;-63
2022/01/21 13:17:44;;;;;;;18.48;2.70;;;;;;;;;;6222611;23;20013;-63
2022/01/21 13:20:10;;;;;;;16.80;2.38;;;;;;;;;;6223765;23;20054;-64
2022/01/21 13:22:36;;;;;;;14.38;2.00;;;;;;;;;;6222978;23;20013;-63
2022/01/21 13:25:10;;;;;;;15.00;1.98;;;;;;;;;;6222686;23;20045;-67
2022/01/21 13:27:37;;;;;;;18.95;3.13;;;;;;;;;;6223195;23;20047;-64
2022/01/21 13:30:06;;;;;;;19.20;2.47;;;;;;;;;;6223907;23;20047;-63
2022/01/21 13:32:32;;;;;;;10.73;1.73;;;;;;;;;;6224773;23;20067;-63
2022/01/21 13:35:09;;;;;;;22.65;2.58;;;;;;;;;;6222581;23;20013;-63
2022/01/21 13:37:35;;;;;;;13.90;3.30;;;;;;;;;;6224209;23;20016;-63
2022/01/21 13:40:04;;;;;;;21.60;2.65;;;;;;;;;;6223653;23;20012;-63
2022/01/21 13:42:31;;;;;;;16.20;3.05;;;;;;;;;;6223522;23;20017;-63
2022/01/21 13:45:01;;;;;;;24.25;2.88;;;;;;;;;;6223861;23;20020;-64
2022/01/21 13:47:36;;;;;;;11.02;1.52;;;;;;;;;;6197107;23;20029;-63
2022/01/21 13:50:30;;;;;;;17.83;1.92;;;;;;;;;;6222211;23;20016;-62
2022/01/21 13:52:59;;;;;;;17.10;2.60;;;;;;;;;;6214307;23;20012;-63
2022/01/21 13:55:25;;;;;;;9.48;1.77;;;;;;;;;;6190972;23;20326;-63
2022/01/21 13:57:52;;;;;;;13.05;2.30;;;;;;;;;;6217699;23;20020;-63
2022/01/21 14:00:29;;;;;;;18.67;3.15;;;;;;;;;;6215840;23;20020;-64
2022/01/21 14:03:06;;;;;;;13.43;2.50;;;;;;;;;;6216667;23;20017;-64
2022/01/21 14:06:02;;;;;;;19.33;2.10;;;;;;;;;;6214450;23;20028;-64
2022/01/21 14:08:32;;;;;;;24.52;3.45;;;;;;;;;;6203008;23;20013;-64
2022/01/21 14:11:05;;;;;;;15.70;3.47;;;;;;;;;;6216532;23;20063;-64
2022/01/21 14:13:33;;;;;;;19.40;2.92;;;;;;;;;;6216302;23;20091;-65
2022/01/21 14:16:00;;;;;;;19.20;2.80;;;;;;;;;;6214760;23;20052;-64
2022/01/21 14:18:34;;;;;;;23.17;3.28;;;;;;;;;;6214541;23;20024;-65
2022/01/21 14:21:09;;;;;;;14.90;2.60;;;;;;;;;;6189535;23;20040;-64
2022/01/21 14:23:37;;;;;;;19.80;2.33;;;;;;;;;;6214030;23;20430;-64
2022/01/21 14:26:04;;;;;;;13.43;2.28;;;;;;;;;;6216129;23;20016;-64
2022/01/21 14:28:37;;;;;;;21.98;2.50;;;;;;;;;;6214468;23;20023;-65
2022/01/21 14:31:03;;;;;;;22.70;2.80;;;;;;;;;;6214358;23;20021;-64
2022/01/21 14:39:11;;;;;;;15.48;2.20;;;;;;;;;;5129323;27;20450;-63
2022/01/21 14:41:41;;;;;;;15.57;2.97;;;;;;;;;;5112161;28;20044;-64
2022/01/21 14:44:08;;;;;;;15.77;2.83;;;;;;;;;;5109947;28;20058;-63
2022/01/21 14:46:35;;;;;;;18.23;2.50;;;;;;;;;;5108865;28;20060;-63
2022/01/21 14:49:03;;;;;;;15.45;2.25;;;;;;;;;;5110168;28;20079;-63
2022/01/21 14:52:33;;;;;;;21.08;2.22;;;;;;;;;;5107929;28;20048;-63
2022/01/21 14:54:47;;;;;;;24.23;3.38;;;;;;;;;;5108554;28;20036;-63
2022/01/21 14:57:13;;;;;;;22.23;2.78;;;;;;;;;;5108847;28;20047;-63
2022/01/21 14:59:53;;;;;;;19.58;2.20;;;;;;;;;;5109795;28;20073;-65
2022/01/21 15:02:27;;;;;;;24.27;2.58;;;;;;;;;;5089632;28;20105;-63
2022/01/21 15:04:54;;;;;;;19.70;2.33;;;;;;;;;;5089911;28;20048;-62
2022/01/21 15:07:25;;;;;;;14.48;2.05;;;;;;;;;;5089699;28;20047;-63
2022/01/21 15:09:52;;;;;;;16.08;2.10;;;;;;;;;;5107994;28;20093;-63
2022/01/21 15:15:46;;;;;;;16.23;1.95;;;;;;;;;;5108977;28;20476;-63
2022/01/21 15:18:13;;;;;;;10.40;1.98;;;;;;;;;;5099145;28;20050;-63
2022/01/21 15:20:39;;;;;;;16.92;2.40;;;;;;;;;;5108400;28;20130;-63
2022/01/21 15:23:06;;;;;;;14.68;2.78;;;;;;;;;;5109002;28;20036;-63
2022/01/21 15:25:33;;;;;;;7.80;1.50;;;;;;;;;;5108716;28;20043;-63
2022/01/21 15:28:00;;;;;;;16.75;2.28;;;;;;;;;;5108794;28;20089;-63
2022/01/21 15:30:27;;;;;;;10.63;1.85;;;;;;;;;;5108275;28;20085;-63
2022/01/21 15:32:54;;;;;;;15.65;3.35;;;;;;;;;;5109655;28;20048;-61
2022/01/21 15:35:20;;;;;;;13.23;2.38;;;;;;;;;;5109526;28;20050;-63
2022/01/21 15:37:46;;;;;;;12.32;1.85;;;;;;;;;;5112228;28;20412;-63
2022/01/21 15:40:13;;;;;;;13.55;2.08;;;;;;;;;;5108963;28;20059;-63
2022/01/21 15:42:41;;;;;;;17.73;3.08;;;;;;;;;;5109831;28;20093;-63
2022/01/21 15:45:07;;;;;;;16.85;2.33;;;;;;;;;;5108434;28;20051;-64
2022/01/21 15:47:33;;;;;;;15.63;2.78;;;;;;;;;;5107605;28;20051;-63
2022/01/21 15:50:00;;;;;;;14.93;2.20;;;;;;;;;;5098824;28;20044;-63
2022/01/21 15:52:26;;;;;;;23.20;2.33;;;;;;;;;;5093364;28;20040;-63
2022/01/21 15:54:52;;;;;;;26.42;2.53;;;;;;;;;;5093626;28;20565;-64
2022/01/21 15:57:18;;;;;;;15.50;2.30;;;;;;;;;;5077360;28;20040;-63
2022/01/21 15:59:44;;;;;;;9.50;1.20;;;;;;;;;;5095840;28;20388;-63
2022/01/21 16:02:10;;;;;;;15.52;2.92;;;;;;;;;;5095734;28;20447;-63